Clopton, Alabama
Current Conditions -  °F | °C
As of 1:53 AM on Wednesday 26 Nov 2014 (Local Time) from KDHN Reporting Station
Few Clouds Few Clouds  
Wind Chill: 43°   Ceiling: Unl
Heat Index: 48°   Visibility: 10mi
Dew Point: 45°   Wind: 10mph
Humidity: 89%   Direction: 300°WNW
Pressure: 30.07"   Gusts: NA
Location:  31.61°N, 85.43°W
Report Text: KDHN 260753Z AUTO 30009KT 10SM FEW110 09/07 A3007 RMK AO2 RAB0658E12 SLP183 P0000 T00890072
Loading
Personal Weather Stations






























Interactive Weather Map New forecast layout! Learn more

10-Day Weather Forecast

Advertisements
Track Severe Weather on mobile